Freedom, NY (14065)

6:35 AM EST on January 18, 2017 (GMT -0500)
2000 ft. above sea level | | Change Station
Active Advisory: Small Craft Advisory

Elev 1945 ft 42.36 °N, 78.41 °W | Updated 4 seconds ago

Overcast
Overcast
33.8 °F
Feels Like 29 °F
N
5.6
Wind Variable Wind from WNW
Gusts 15.0 mph

Today
High -- | Low -- °F
--% Chance of Precip.
Yesterday
High -- | Low -- °F
Precip. -- in
Pressure 29.86 in
Visibility 10.0 miles
Clouds Overcast 500 ft
Windchill 29 °F
Dew Point 35 °F
Humidity 99%
Rainfall 0.03 in
Snow Depth Not available.
7:38 AM 5:09 PM
Waning Gibbous, 64% visible
METAR KOLE 181115Z AUTO 28006G17KT 10SM OVC005 00/00 A2986 RMK AO2
Pressure 29.86 in
Visibility 10.0 miles
Clouds Overcast 500 ft
Windchill 29 °F
Dew Point 35 °F
Humidity 99%
Rainfall 0.03 in
Snow Depth Not available.
7:38 AM 5:09 PM
Waning Gibbous, 64% visible
METAR KOLE 181115Z AUTO 28006G17KT 10SM OVC005 00/00 A2986 RMK AO2

Get Your Daily Forecast Email!

Thanks for signing up!

Be on the lookout for a verification email in your inbox.

You'll start receiving the daily forecast at 8 AM.

×

10-Day Weather Forecast

Almanac

Astronomy

Jan. 18, 2017 Rise Set
Actual Time
Civil Twilight
Nautical Twilight
Astronomical Twilight
Moon
Length of Visible Light
Length of Day
Tomorrow will be .
, % of the Moon is Illuminated

Today's Extremes

State Highs State Lows

Community

WunderPhotos

Upload Photos

1,962,540 photos uploaded!

WunderBlog® & News

Nearby

Air Quality

  Air Quality AQ Index Pollutant
Not available.

Snow Depth

Station Depth Elevation

Earthquake Activity

City Distance Mag. Time & Date
Minimum magnitude displayed is 2.5.

Coastal Water Temperatures

Place Temperature

Stations

Nearby Weather Stations

Station Location Temp. Windchill Dew Point Humidity Wind Precip. Elev Updated Type
                   

Watches & Warnings

Small Craft Advisory
Issued: 3:14 AM EST Jan. 18, 2017 – National Weather Service

... Small Craft Advisory now in effect until 1 PM EST this
afternoon...

* winds... west 15 to 20 knots.

* Waves... 3 to 5 feet.

Precautionary/preparedness actions...

A Small Craft Advisory means that wind speeds of 18 to 33 knots
and/or waves averaging 4 feet or more are expected to produce
hazardous wave conditions to small craft. Inexperienced
mariners... especially those operating smaller vessels... should
avoid navigating in these conditions.



Church